sensor_id;sensor_type;location;lat;lon;timestamp;P1;durP1;ratioP1;P2;durP2;ratioP2
80334;SDS011;69653;52.674;13.574;2023-07-31T00:00:58;4.30;;;1.90;;
80334;SDS011;69653;52.674;13.574;2023-07-31T00:03:23;3.97;;;1.60;;
80334;SDS011;69653;52.674;13.574;2023-07-31T00:05:49;4.60;;;1.70;;
80334;SDS011;69653;52.674;13.574;2023-07-31T00:08:14;4.53;;;1.67;;
80334;SDS011;69653;52.674;13.574;2023-07-31T00:10:39;4.77;;;1.60;;
80334;SDS011;69653;52.674;13.574;2023-07-31T00:13:05;4.00;;;1.40;;
80334;SDS011;69653;52.674;13.574;2023-07-31T00:15:30;6.00;;;1.57;;
80334;SDS011;69653;52.674;13.574;2023-07-31T00:17:55;3.43;;;1.67;;
80334;SDS011;69653;52.674;13.574;2023-07-31T00:20:21;4.60;;;1.63;;
80334;SDS011;69653;52.674;13.574;2023-07-31T00:22:46;3.65;;;1.60;;
80334;SDS011;69653;52.674;13.574;2023-07-31T00:25:11;5.87;;;2.10;;
80334;SDS011;69653;52.674;13.574;2023-07-31T00:27:36;6.63;;;1.67;;
80334;SDS011;69653;52.674;13.574;2023-07-31T00:30:02;5.97;;;1.83;;
80334;SDS011;69653;52.674;13.574;2023-07-31T00:32:28;4.70;;;1.67;;
80334;SDS011;69653;52.674;13.574;2023-07-31T00:34:53;5.97;;;1.90;;
80334;SDS011;69653;52.674;13.574;2023-07-31T00:37:18;7.33;;;1.90;;
80334;SDS011;69653;52.674;13.574;2023-07-31T00:39:44;4.60;;;2.00;;
80334;SDS011;69653;52.674;13.574;2023-07-31T00:42:09;6.30;;;1.90;;
80334;SDS011;69653;52.674;13.574;2023-07-31T00:44:34;3.97;;;1.80;;
80334;SDS011;69653;52.674;13.574;2023-07-31T00:47:00;4.90;;;1.80;;
80334;SDS011;69653;52.674;13.574;2023-07-31T00:49:25;6.10;;;2.33;;
80334;SDS011;69653;52.674;13.574;2023-07-31T00:51:51;3.90;;;2.13;;
80334;SDS011;69653;52.674;13.574;2023-07-31T00:54:17;4.47;;;1.60;;
80334;SDS011;69653;52.674;13.574;2023-07-31T00:56:44;5.30;;;1.70;;
80334;SDS011;69653;52.674;13.574;2023-07-31T00:59:10;5.82;;;1.85;;
80334;SDS011;69653;52.674;13.574;2023-07-31T01:01:36;5.20;;;1.80;;
80334;SDS011;69653;52.674;13.574;2023-07-31T01:04:01;5.40;;;1.80;;
80334;SDS011;69653;52.674;13.574;2023-07-31T01:06:31;4.05;;;1.58;;
80334;SDS011;69653;52.674;13.574;2023-07-31T01:09:11;5.65;;;1.77;;
80334;SDS011;69653;52.674;13.574;2023-07-31T01:11:48;5.05;;;2.00;;
80334;SDS011;69653;52.674;13.574;2023-07-31T01:14:17;4.53;;;1.70;;
80334;SDS011;69653;52.674;13.574;2023-07-31T01:16:43;5.13;;;1.70;;
80334;SDS011;69653;52.674;13.574;2023-07-31T01:19:08;4.30;;;1.63;;
80334;SDS011;69653;52.674;13.574;2023-07-31T01:26:55;6.32;;;1.70;;
80334;SDS011;69653;52.674;13.574;2023-07-31T01:32:02;5.93;;;1.65;;
80334;SDS011;69653;52.674;13.574;2023-07-31T01:34:30;5.45;;;1.60;;
80334;SDS011;69653;52.674;13.574;2023-07-31T01:36:57;3.45;;;1.33;;
80334;SDS011;69653;52.674;13.574;2023-07-31T01:39:23;6.22;;;1.73;;
80334;SDS011;69653;52.674;13.574;2023-07-31T01:41:49;4.80;;;2.25;;
80334;SDS011;69653;52.674;13.574;2023-07-31T01:44:14;4.83;;;1.60;;
80334;SDS011;69653;52.674;13.574;2023-07-31T01:46:39;5.17;;;1.60;;
80334;SDS011;69653;52.674;13.574;2023-07-31T01:49:05;3.80;;;1.60;;
80334;SDS011;69653;52.674;13.574;2023-07-31T01:51:31;5.90;;;1.63;;
80334;SDS011;69653;52.674;13.574;2023-07-31T01:53:59;3.88;;;1.42;;
80334;SDS011;69653;52.674;13.574;2023-07-31T01:56:27;6.38;;;1.70;;
80334;SDS011;69653;52.674;13.574;2023-07-31T01:58:52;5.20;;;1.35;;
80334;SDS011;69653;52.674;13.574;2023-07-31T02:01:18;4.10;;;1.40;;
80334;SDS011;69653;52.674;13.574;2023-07-31T02:03:43;5.70;;;1.70;;
80334;SDS011;69653;52.674;13.574;2023-07-31T02:06:08;5.67;;;1.70;;
80334;SDS011;69653;52.674;13.574;2023-07-31T02:08:34;6.33;;;1.70;;
80334;SDS011;69653;52.674;13.574;2023-07-31T02:10:59;6.13;;;1.77;;
80334;SDS011;69653;52.674;13.574;2023-07-31T02:13:25;4.47;;;1.92;;
80334;SDS011;69653;52.674;13.574;2023-07-31T02:15:50;4.60;;;1.50;;
80334;SDS011;69653;52.674;13.574;2023-07-31T02:18:15;4.78;;;1.70;;
80334;SDS011;69653;52.674;13.574;2023-07-31T02:20:41;8.43;;;2.88;;
80334;SDS011;69653;52.674;13.574;2023-07-31T02:23:06;5.30;;;2.95;;
80334;SDS011;69653;52.674;13.574;2023-07-31T02:25:32;5.30;;;2.40;;
80334;SDS011;69653;52.674;13.574;2023-07-31T02:27:57;5.23;;;2.20;;
80334;SDS011;69653;52.674;13.574;2023-07-31T02:30:22;6.45;;;2.00;;
80334;SDS011;69653;52.674;13.574;2023-07-31T02:32:48;5.47;;;2.10;;
80334;SDS011;69653;52.674;13.574;2023-07-31T02:35:13;6.20;;;2.13;;
80334;SDS011;69653;52.674;13.574;2023-07-31T02:37:40;4.53;;;2.00;;
80334;SDS011;69653;52.674;13.574;2023-07-31T02:40:06;5.28;;;2.25;;
80334;SDS011;69653;52.674;13.574;2023-07-31T02:42:32;6.05;;;2.17;;
80334;SDS011;69653;52.674;13.574;2023-07-31T02:44:57;7.27;;;2.20;;
80334;SDS011;69653;52.674;13.574;2023-07-31T02:47:23;4.80;;;2.30;;
80334;SDS011;69653;52.674;13.574;2023-07-31T02:49:48;5.17;;;2.30;;
80334;SDS011;69653;52.674;13.574;2023-07-31T02:52:13;7.73;;;2.60;;
80334;SDS011;69653;52.674;13.574;2023-07-31T02:54:39;6.77;;;3.00;;
80334;SDS011;69653;52.674;13.574;2023-07-31T02:57:04;6.63;;;2.40;;
80334;SDS011;69653;52.674;13.574;2023-07-31T02:59:30;6.35;;;2.72;;
80334;SDS011;69653;52.674;13.574;2023-07-31T03:01:55;4.38;;;2.35;;
80334;SDS011;69653;52.674;13.574;2023-07-31T03:04:20;5.77;;;2.47;;
80334;SDS011;69653;52.674;13.574;2023-07-31T03:06:46;6.53;;;2.33;;
80334;SDS011;69653;52.674;13.574;2023-07-31T03:09:11;6.73;;;2.77;;
80334;SDS011;69653;52.674;13.574;2023-07-31T03:11:36;5.97;;;2.90;;
80334;SDS011;69653;52.674;13.574;2023-07-31T03:14:02;5.17;;;2.30;;
80334;SDS011;69653;52.674;13.574;2023-07-31T03:16:27;6.00;;;2.73;;
80334;SDS011;69653;52.674;13.574;2023-07-31T03:18:52;6.70;;;2.53;;
80334;SDS011;69653;52.674;13.574;2023-07-31T03:21:19;6.65;;;2.33;;
80334;SDS011;69653;52.674;13.574;2023-07-31T03:23:44;6.35;;;2.40;;
80334;SDS011;69653;52.674;13.574;2023-07-31T03:26:10;6.73;;;2.90;;
80334;SDS011;69653;52.674;13.574;2023-07-31T03:28:35;9.75;;;2.75;;
80334;SDS011;69653;52.674;13.574;2023-07-31T03:31:01;6.70;;;2.70;;
80334;SDS011;69653;52.674;13.574;2023-07-31T03:33:26;8.50;;;3.00;;
80334;SDS011;69653;52.674;13.574;2023-07-31T03:35:51;9.37;;;3.00;;
80334;SDS011;69653;52.674;13.574;2023-07-31T03:38:17;6.70;;;2.65;;
80334;SDS011;69653;52.674;13.574;2023-07-31T03:40:43;5.68;;;2.90;;
80334;SDS011;69653;52.674;13.574;2023-07-31T03:43:08;6.77;;;2.70;;
80334;SDS011;69653;52.674;13.574;2023-07-31T03:45:33;4.53;;;2.40;;
80334;SDS011;69653;52.674;13.574;2023-07-31T03:47:59;7.47;;;3.30;;
80334;SDS011;69653;52.674;13.574;2023-07-31T03:50:24;6.70;;;2.93;;
80334;SDS011;69653;52.674;13.574;2023-07-31T03:52:50;6.60;;;3.53;;
80334;SDS011;69653;52.674;13.574;2023-07-31T03:55:15;7.80;;;4.00;;
80334;SDS011;69653;52.674;13.574;2023-07-31T03:57:41;7.07;;;3.33;;
80334;SDS011;69653;52.674;13.574;2023-07-31T04:00:06;5.40;;;3.13;;
80334;SDS011;69653;52.674;13.574;2023-07-31T04:02:32;7.43;;;2.67;;
80334;SDS011;69653;52.674;13.574;2023-07-31T04:04:58;8.27;;;3.00;;
80334;SDS011;69653;52.674;13.574;2023-07-31T04:07:23;7.53;;;2.90;;
80334;SDS011;69653;52.674;13.574;2023-07-31T04:09:48;6.23;;;3.03;;
80334;SDS011;69653;52.674;13.574;2023-07-31T04:12:14;8.43;;;3.87;;
80334;SDS011;69653;52.674;13.574;2023-07-31T04:14:39;8.37;;;3.27;;
80334;SDS011;69653;52.674;13.574;2023-07-31T04:17:04;6.93;;;3.17;;
80334;SDS011;69653;52.674;13.574;2023-07-31T04:19:30;5.63;;;3.05;;
80334;SDS011;69653;52.674;13.574;2023-07-31T04:21:55;8.40;;;3.30;;
80334;SDS011;69653;52.674;13.574;2023-07-31T04:24:20;7.30;;;3.37;;
80334;SDS011;69653;52.674;13.574;2023-07-31T04:26:52;7.47;;;3.35;;
80334;SDS011;69653;52.674;13.574;2023-07-31T04:29:18;8.07;;;4.07;;
80334;SDS011;69653;52.674;13.574;2023-07-31T04:31:44;10.10;;;4.18;;
80334;SDS011;69653;52.674;13.574;2023-07-31T04:34:09;9.07;;;3.40;;
80334;SDS011;69653;52.674;13.574;2023-07-31T04:36:34;7.13;;;3.53;;
80334;SDS011;69653;52.674;13.574;2023-07-31T04:39:00;12.07;;;3.60;;
80334;SDS011;69653;52.674;13.574;2023-07-31T04:41:26;10.63;;;4.15;;
80334;SDS011;69653;52.674;13.574;2023-07-31T04:43:51;10.65;;;4.18;;
80334;SDS011;69653;52.674;13.574;2023-07-31T04:46:17;7.63;;;3.97;;
80334;SDS011;69653;52.674;13.574;2023-07-31T04:48:42;6.73;;;3.60;;
80334;SDS011;69653;52.674;13.574;2023-07-31T04:51:08;8.70;;;3.92;;
80334;SDS011;69653;52.674;13.574;2023-07-31T04:53:34;8.60;;;4.18;;
80334;SDS011;69653;52.674;13.574;2023-07-31T04:55:59;9.43;;;4.20;;
80334;SDS011;69653;52.674;13.574;2023-07-31T04:58:25;11.90;;;4.20;;
80334;SDS011;69653;52.674;13.574;2023-07-31T05:00:50;9.23;;;4.20;;
80334;SDS011;69653;52.674;13.574;2023-07-31T05:03:15;7.20;;;4.07;;
80334;SDS011;69653;52.674;13.574;2023-07-31T05:05:42;7.85;;;3.85;;
80334;SDS011;69653;52.674;13.574;2023-07-31T05:08:07;9.00;;;4.20;;
80334;SDS011;69653;52.674;13.574;2023-07-31T05:10:32;11.23;;;5.10;;
80334;SDS011;69653;52.674;13.574;2023-07-31T05:12:58;7.53;;;4.20;;
80334;SDS011;69653;52.674;13.574;2023-07-31T05:15:23;9.50;;;4.40;;
80334;SDS011;69653;52.674;13.574;2023-07-31T05:17:48;8.17;;;4.20;;
80334;SDS011;69653;52.674;13.574;2023-07-31T05:20:14;9.67;;;3.83;;
80334;SDS011;69653;52.674;13.574;2023-07-31T05:22:39;7.20;;;3.53;;
80334;SDS011;69653;52.674;13.574;2023-07-31T05:25:05;10.88;;;3.88;;
80334;SDS011;69653;52.674;13.574;2023-07-31T05:27:42;7.05;;;4.15;;
80334;SDS011;69653;52.674;13.574;2023-07-31T05:30:08;7.05;;;3.30;;
80334;SDS011;69653;52.674;13.574;2023-07-31T05:32:33;8.85;;;4.07;;
80334;SDS011;69653;52.674;13.574;2023-07-31T05:34:59;8.63;;;3.73;;
80334;SDS011;69653;52.674;13.574;2023-07-31T05:37:24;9.80;;;4.00;;
80334;SDS011;69653;52.674;13.574;2023-07-31T05:39:49;10.17;;;4.73;;
80334;SDS011;69653;52.674;13.574;2023-07-31T05:42:15;6.32;;;3.78;;
80334;SDS011;69653;52.674;13.574;2023-07-31T05:44:41;10.67;;;3.93;;
80334;SDS011;69653;52.674;13.574;2023-07-31T05:47:06;8.63;;;3.73;;
80334;SDS011;69653;52.674;13.574;2023-07-31T05:49:31;9.17;;;3.60;;
80334;SDS011;69653;52.674;13.574;2023-07-31T05:51:56;6.67;;;3.50;;
80334;SDS011;69653;52.674;13.574;2023-07-31T05:54:22;9.77;;;3.70;;
80334;SDS011;69653;52.674;13.574;2023-07-31T05:56:47;9.20;;;3.33;;
80334;SDS011;69653;52.674;13.574;2023-07-31T05:59:12;8.40;;;3.33;;
80334;SDS011;69653;52.674;13.574;2023-07-31T06:01:38;7.55;;;3.53;;
80334;SDS011;69653;52.674;13.574;2023-07-31T06:04:04;9.55;;;3.40;;
80334;SDS011;69653;52.674;13.574;2023-07-31T06:06:29;6.73;;;3.23;;
80334;SDS011;69653;52.674;13.574;2023-07-31T06:08:54;8.83;;;3.40;;
80334;SDS011;69653;52.674;13.574;2023-07-31T06:11:20;7.70;;;3.60;;
80334;SDS011;69653;52.674;13.574;2023-07-31T06:13:45;8.40;;;3.30;;
80334;SDS011;69653;52.674;13.574;2023-07-31T06:16:13;10.05;;;3.88;;
80334;SDS011;69653;52.674;13.574;2023-07-31T06:18:38;6.47;;;3.33;;
80334;SDS011;69653;52.674;13.574;2023-07-31T06:21:03;6.90;;;3.47;;
80334;SDS011;69653;52.674;13.574;2023-07-31T06:23:28;7.13;;;3.00;;
80334;SDS011;69653;52.674;13.574;2023-07-31T06:25:54;6.37;;;3.03;;
80334;SDS011;69653;52.674;13.574;2023-07-31T06:28:19;5.90;;;2.93;;
80334;SDS011;69653;52.674;13.574;2023-07-31T06:30:44;9.50;;;3.87;;
80334;SDS011;69653;52.674;13.574;2023-07-31T06:33:10;9.17;;;3.70;;
80334;SDS011;69653;52.674;13.574;2023-07-31T06:35:35;6.40;;;3.30;;
80334;SDS011;69653;52.674;13.574;2023-07-31T06:38:00;7.90;;;3.67;;
80334;SDS011;69653;52.674;13.574;2023-07-31T06:40:27;8.02;;;3.63;;
80334;SDS011;69653;52.674;13.574;2023-07-31T06:42:52;5.80;;;2.50;;
80334;SDS011;69653;52.674;13.574;2023-07-31T06:45:17;7.43;;;3.00;;
80334;SDS011;69653;52.674;13.574;2023-07-31T06:47:43;8.18;;;2.83;;
80334;SDS011;69653;52.674;13.574;2023-07-31T06:50:08;6.63;;;2.93;;
80334;SDS011;69653;52.674;13.574;2023-07-31T06:52:34;5.80;;;2.72;;
80334;SDS011;69653;52.674;13.574;2023-07-31T06:55:02;5.70;;;3.00;;
80334;SDS011;69653;52.674;13.574;2023-07-31T06:57:29;7.32;;;2.95;;
80334;SDS011;69653;52.674;13.574;2023-07-31T06:59:54;6.25;;;3.17;;
80334;SDS011;69653;52.674;13.574;2023-07-31T07:02:20;7.67;;;2.70;;
80334;SDS011;69653;52.674;13.574;2023-07-31T07:04:45;6.50;;;3.23;;
80334;SDS011;69653;52.674;13.574;2023-07-31T07:07:11;7.10;;;2.78;;
80334;SDS011;69653;52.674;13.574;2023-07-31T07:09:36;8.73;;;3.17;;
80334;SDS011;69653;52.674;13.574;2023-07-31T07:12:01;7.57;;;2.87;;
80334;SDS011;69653;52.674;13.574;2023-07-31T07:14:27;7.57;;;2.80;;
80334;SDS011;69653;52.674;13.574;2023-07-31T07:16:52;6.63;;;2.77;;
80334;SDS011;69653;52.674;13.574;2023-07-31T07:19:17;7.43;;;3.07;;
80334;SDS011;69653;52.674;13.574;2023-07-31T07:21:43;7.57;;;2.90;;
80334;SDS011;69653;52.674;13.574;2023-07-31T07:24:08;8.03;;;3.10;;
80334;SDS011;69653;52.674;13.574;2023-07-31T07:26:33;5.53;;;2.63;;
80334;SDS011;69653;52.674;13.574;2023-07-31T07:28:59;7.57;;;2.70;;
80334;SDS011;69653;52.674;13.574;2023-07-31T07:31:26;7.18;;;2.63;;
80334;SDS011;69653;52.674;13.574;2023-07-31T07:33:52;5.50;;;2.47;;
80334;SDS011;69653;52.674;13.574;2023-07-31T07:36:17;6.50;;;2.27;;
80334;SDS011;69653;52.674;13.574;2023-07-31T07:38:42;6.17;;;2.57;;
80334;SDS011;69653;52.674;13.574;2023-07-31T07:41:08;5.93;;;2.47;;
80334;SDS011;69653;52.674;13.574;2023-07-31T07:43:33;6.77;;;2.80;;
80334;SDS011;69653;52.674;13.574;2023-07-31T07:45:58;6.37;;;3.00;;
80334;SDS011;69653;52.674;13.574;2023-07-31T07:48:23;6.17;;;2.40;;
80334;SDS011;69653;52.674;13.574;2023-07-31T07:50:50;8.30;;;3.22;;
80334;SDS011;69653;52.674;13.574;2023-07-31T07:53:15;5.47;;;2.97;;
80334;SDS011;69653;52.674;13.574;2023-07-31T07:55:40;5.65;;;2.80;;
80334;SDS011;69653;52.674;13.574;2023-07-31T07:58:06;6.60;;;2.53;;
80334;SDS011;69653;52.674;13.574;2023-07-31T08:00:31;6.13;;;2.53;;
80334;SDS011;69653;52.674;13.574;2023-07-31T08:02:56;6.77;;;2.20;;
80334;SDS011;69653;52.674;13.574;2023-07-31T08:05:23;6.40;;;2.38;;
80334;SDS011;69653;52.674;13.574;2023-07-31T08:07:48;10.43;;;2.40;;
80334;SDS011;69653;52.674;13.574;2023-07-31T08:10:14;6.93;;;2.37;;
80334;SDS011;69653;52.674;13.574;2023-07-31T08:12:39;4.37;;;2.30;;
80334;SDS011;69653;52.674;13.574;2023-07-31T08:15:04;5.37;;;2.23;;
80334;SDS011;69653;52.674;13.574;2023-07-31T08:17:30;5.05;;;2.03;;
80334;SDS011;69653;52.674;13.574;2023-07-31T08:19:56;6.13;;;2.37;;
80334;SDS011;69653;52.674;13.574;2023-07-31T08:22:23;4.78;;;1.90;;
80334;SDS011;69653;52.674;13.574;2023-07-31T08:24:48;7.57;;;2.30;;
80334;SDS011;69653;52.674;13.574;2023-07-31T08:27:13;7.87;;;2.10;;
80334;SDS011;69653;52.674;13.574;2023-07-31T08:29:39;4.50;;;2.43;;
80334;SDS011;69653;52.674;13.574;2023-07-31T08:32:04;5.87;;;2.03;;
80334;SDS011;69653;52.674;13.574;2023-07-31T08:34:30;4.85;;;2.17;;
80334;SDS011;69653;52.674;13.574;2023-07-31T08:36:55;5.67;;;2.03;;
80334;SDS011;69653;52.674;13.574;2023-07-31T08:39:20;4.80;;;2.03;;
80334;SDS011;69653;52.674;13.574;2023-07-31T08:41:46;6.60;;;2.30;;
80334;SDS011;69653;52.674;13.574;2023-07-31T08:44:12;4.55;;;2.00;;
80334;SDS011;69653;52.674;13.574;2023-07-31T08:46:38;5.22;;;2.15;;
80334;SDS011;69653;52.674;13.574;2023-07-31T08:49:05;5.00;;;2.30;;
80334;SDS011;69653;52.674;13.574;2023-07-31T08:51:33;5.40;;;2.17;;
80334;SDS011;69653;52.674;13.574;2023-07-31T08:53:59;4.03;;;2.00;;
80334;SDS011;69653;52.674;13.574;2023-07-31T08:56:24;4.50;;;1.90;;
80334;SDS011;69653;52.674;13.574;2023-07-31T08:58:51;4.30;;;2.00;;
80334;SDS011;69653;52.674;13.574;2023-07-31T09:01:18;5.68;;;1.95;;
80334;SDS011;69653;52.674;13.574;2023-07-31T09:03:44;4.68;;;1.88;;
80334;SDS011;69653;52.674;13.574;2023-07-31T09:06:11;4.63;;;1.92;;
80334;SDS011;69653;52.674;13.574;2023-07-31T09:08:38;4.38;;;1.83;;
80334;SDS011;69653;52.674;13.574;2023-07-31T09:11:07;4.70;;;1.90;;
80334;SDS011;69653;52.674;13.574;2023-07-31T09:13:32;5.00;;;2.23;;
80334;SDS011;69653;52.674;13.574;2023-07-31T09:15:58;4.50;;;2.05;;
80334;SDS011;69653;52.674;13.574;2023-07-31T09:18:24;6.25;;;2.13;;
80334;SDS011;69653;52.674;13.574;2023-07-31T09:21:02;6.30;;;2.00;;
80334;SDS011;69653;52.674;13.574;2023-07-31T09:23:39;4.88;;;1.85;;
80334;SDS011;69653;52.674;13.574;2023-07-31T09:26:06;3.80;;;1.70;;
80334;SDS011;69653;52.674;13.574;2023-07-31T09:28:32;4.30;;;1.80;;
80334;SDS011;69653;52.674;13.574;2023-07-31T09:30:57;5.50;;;1.80;;
80334;SDS011;69653;52.674;13.574;2023-07-31T09:33:22;4.30;;;1.87;;
80334;SDS011;69653;52.674;13.574;2023-07-31T09:35:47;4.20;;;1.77;;
80334;SDS011;69653;52.674;13.574;2023-07-31T09:38:13;4.90;;;1.58;;
80334;SDS011;69653;52.674;13.574;2023-07-31T09:40:44;3.58;;;1.63;;
80334;SDS011;69653;52.674;13.574;2023-07-31T09:43:11;4.10;;;1.50;;
80334;SDS011;69653;52.674;13.574;2023-07-31T09:45:38;5.13;;;1.67;;
80334;SDS011;69653;52.674;13.574;2023-07-31T09:48:10;4.45;;;1.83;;
80334;SDS011;69653;52.674;13.574;2023-07-31T09:50:43;4.35;;;1.60;;
80334;SDS011;69653;52.674;13.574;2023-07-31T09:53:09;3.83;;;1.70;;
80334;SDS011;69653;52.674;13.574;2023-07-31T09:55:35;4.73;;;1.27;;
80334;SDS011;69653;52.674;13.574;2023-07-31T09:58:05;4.82;;;1.77;;
80334;SDS011;69653;52.674;13.574;2023-07-31T10:00:32;5.63;;;2.35;;
80334;SDS011;69653;52.674;13.574;2023-07-31T10:02:58;3.85;;;1.58;;
80334;SDS011;69653;52.674;13.574;2023-07-31T10:08:00;4.93;;;2.08;;
80334;SDS011;69653;52.674;13.574;2023-07-31T10:10:25;5.60;;;2.40;;
80334;SDS011;69653;52.674;13.574;2023-07-31T10:12:52;5.85;;;1.58;;
80334;SDS011;69653;52.674;13.574;2023-07-31T10:15:19;3.38;;;1.23;;
80334;SDS011;69653;52.674;13.574;2023-07-31T10:17:47;4.65;;;1.70;;
80334;SDS011;69653;52.674;13.574;2023-07-31T10:20:14;6.88;;;2.60;;
80334;SDS011;69653;52.674;13.574;2023-07-31T10:22:41;3.40;;;1.38;;
80334;SDS011;69653;52.674;13.574;2023-07-31T10:25:07;4.38;;;1.77;;
80334;SDS011;69653;52.674;13.574;2023-07-31T10:27:34;5.40;;;1.73;;
80334;SDS011;69653;52.674;13.574;2023-07-31T10:30:01;4.80;;;1.77;;
80334;SDS011;69653;52.674;13.574;2023-07-31T10:32:30;5.72;;;1.50;;
80334;SDS011;69653;52.674;13.574;2023-07-31T10:34:57;3.55;;;1.77;;
80334;SDS011;69653;52.674;13.574;2023-07-31T10:37:29;3.17;;;1.30;;
80334;SDS011;69653;52.674;13.574;2023-07-31T10:40:05;5.15;;;1.73;;
80334;SDS011;69653;52.674;13.574;2023-07-31T10:42:47;4.50;;;1.60;;
80334;SDS011;69653;52.674;13.574;2023-07-31T10:48:02;6.13;;;2.10;;
80334;SDS011;69653;52.674;13.574;2023-07-31T10:50:29;4.25;;;1.90;;
80334;SDS011;69653;52.674;13.574;2023-07-31T10:52:57;5.40;;;2.38;;
80334;SDS011;69653;52.674;13.574;2023-07-31T10:55:42;4.93;;;2.10;;
80334;SDS011;69653;52.674;13.574;2023-07-31T10:58:13;5.40;;;2.30;;
80334;SDS011;69653;52.674;13.574;2023-07-31T11:00:39;5.78;;;2.58;;
80334;SDS011;69653;52.674;13.574;2023-07-31T11:03:16;6.43;;;2.70;;
80334;SDS011;69653;52.674;13.574;2023-07-31T11:05:44;7.82;;;2.72;;
80334;SDS011;69653;52.674;13.574;2023-07-31T11:10:46;8.88;;;3.58;;
80334;SDS011;69653;52.674;13.574;2023-07-31T11:13:12;19.17;;;8.27;;
80334;SDS011;69653;52.674;13.574;2023-07-31T11:15:38;7.60;;;3.22;;
80334;SDS011;69653;52.674;13.574;2023-07-31T11:18:03;6.97;;;3.58;;
80334;SDS011;69653;52.674;13.574;2023-07-31T11:20:30;8.73;;;3.35;;
80334;SDS011;69653;52.674;13.574;2023-07-31T11:23:03;8.23;;;3.22;;
80334;SDS011;69653;52.674;13.574;2023-07-31T11:25:31;8.25;;;3.10;;
80334;SDS011;69653;52.674;13.574;2023-07-31T11:27:58;5.90;;;2.90;;
80334;SDS011;69653;52.674;13.574;2023-07-31T11:30:27;6.97;;;2.90;;
80334;SDS011;69653;52.674;13.574;2023-07-31T11:32:53;6.20;;;2.50;;
80334;SDS011;69653;52.674;13.574;2023-07-31T11:35:20;8.52;;;3.00;;
80334;SDS011;69653;52.674;13.574;2023-07-31T11:37:45;5.30;;;2.30;;
80334;SDS011;69653;52.674;13.574;2023-07-31T11:40:11;4.75;;;2.28;;
80334;SDS011;69653;52.674;13.574;2023-07-31T11:42:37;8.10;;;2.50;;
80334;SDS011;69653;52.674;13.574;2023-07-31T11:45:03;6.38;;;2.60;;
80334;SDS011;69653;52.674;13.574;2023-07-31T11:47:29;6.40;;;2.63;;
80334;SDS011;69653;52.674;13.574;2023-07-31T11:49:57;7.90;;;3.60;;
80334;SDS011;69653;52.674;13.574;2023-07-31T11:52:23;6.18;;;3.03;;
80334;SDS011;69653;52.674;13.574;2023-07-31T11:54:49;6.57;;;2.47;;
80334;SDS011;69653;52.674;13.574;2023-07-31T11:57:15;5.80;;;2.58;;
80334;SDS011;69653;52.674;13.574;2023-07-31T11:59:41;5.63;;;2.42;;
80334;SDS011;69653;52.674;13.574;2023-07-31T12:02:07;6.22;;;2.70;;
80334;SDS011;69653;52.674;13.574;2023-07-31T12:04:33;6.07;;;2.42;;
80334;SDS011;69653;52.674;13.574;2023-07-31T12:07:00;6.15;;;2.30;;
80334;SDS011;69653;52.674;13.574;2023-07-31T12:09:25;6.45;;;1.98;;
80334;SDS011;69653;52.674;13.574;2023-07-31T12:11:51;7.13;;;2.53;;
80334;SDS011;69653;52.674;13.574;2023-07-31T12:14:26;5.77;;;2.00;;
80334;SDS011;69653;52.674;13.574;2023-07-31T12:16:56;4.65;;;2.03;;
80334;SDS011;69653;52.674;13.574;2023-07-31T12:19:23;5.63;;;2.35;;
80334;SDS011;69653;52.674;13.574;2023-07-31T12:21:52;6.00;;;2.55;;
80334;SDS011;69653;52.674;13.574;2023-07-31T12:24:18;6.00;;;2.70;;
80334;SDS011;69653;52.674;13.574;2023-07-31T12:26:45;5.20;;;2.15;;
80334;SDS011;69653;52.674;13.574;2023-07-31T12:29:14;5.55;;;1.95;;
80334;SDS011;69653;52.674;13.574;2023-07-31T12:31:40;6.07;;;2.17;;
80334;SDS011;69653;52.674;13.574;2023-07-31T12:34:16;5.45;;;2.33;;
80334;SDS011;69653;52.674;13.574;2023-07-31T12:36:43;6.60;;;2.30;;
80334;SDS011;69653;52.674;13.574;2023-07-31T12:39:09;7.07;;;2.88;;
80334;SDS011;69653;52.674;13.574;2023-07-31T12:41:35;6.57;;;2.40;;
80334;SDS011;69653;52.674;13.574;2023-07-31T12:44:00;5.55;;;2.15;;
80334;SDS011;69653;52.674;13.574;2023-07-31T12:46:26;8.57;;;2.60;;
80334;SDS011;69653;52.674;13.574;2023-07-31T12:48:51;8.03;;;3.20;;
80334;SDS011;69653;52.674;13.574;2023-07-31T12:51:16;5.63;;;2.43;;
80334;SDS011;69653;52.674;13.574;2023-07-31T12:53:42;4.80;;;2.27;;
80334;SDS011;69653;52.674;13.574;2023-07-31T12:56:07;6.70;;;2.53;;
80334;SDS011;69653;52.674;13.574;2023-07-31T12:58:32;5.28;;;2.65;;
80334;SDS011;69653;52.674;13.574;2023-07-31T13:00:58;6.20;;;2.83;;
80334;SDS011;69653;52.674;13.574;2023-07-31T13:03:23;7.13;;;2.33;;
80334;SDS011;69653;52.674;13.574;2023-07-31T13:05:48;7.97;;;2.80;;
80334;SDS011;69653;52.674;13.574;2023-07-31T13:08:14;6.20;;;2.63;;
80334;SDS011;69653;52.674;13.574;2023-07-31T13:10:40;7.18;;;3.13;;
80334;SDS011;69653;52.674;13.574;2023-07-31T13:13:06;5.43;;;2.35;;
80334;SDS011;69653;52.674;13.574;2023-07-31T13:15:31;8.83;;;3.40;;
80334;SDS011;69653;52.674;13.574;2023-07-31T13:17:56;7.67;;;2.80;;
80334;SDS011;69653;52.674;13.574;2023-07-31T13:20:22;7.77;;;2.70;;
80334;SDS011;69653;52.674;13.574;2023-07-31T13:22:47;6.40;;;2.77;;
80334;SDS011;69653;52.674;13.574;2023-07-31T13:25:12;6.43;;;3.07;;
80334;SDS011;69653;52.674;13.574;2023-07-31T13:27:38;6.00;;;3.00;;
80334;SDS011;69653;52.674;13.574;2023-07-31T13:30:03;6.73;;;2.63;;
80334;SDS011;69653;52.674;13.574;2023-07-31T13:32:29;5.03;;;2.35;;
80334;SDS011;69653;52.674;13.574;2023-07-31T13:34:54;6.32;;;2.53;;
80334;SDS011;69653;52.674;13.574;2023-07-31T13:37:20;6.73;;;2.87;;
80334;SDS011;69653;52.674;13.574;2023-07-31T13:39:45;6.03;;;2.97;;
80334;SDS011;69653;52.674;13.574;2023-07-31T13:42:10;7.50;;;2.90;;
80334;SDS011;69653;52.674;13.574;2023-07-31T13:44:37;6.95;;;2.78;;
80334;SDS011;69653;52.674;13.574;2023-07-31T13:47:04;5.32;;;2.33;;
80334;SDS011;69653;52.674;13.574;2023-07-31T13:49:29;6.05;;;2.03;;
80334;SDS011;69653;52.674;13.574;2023-07-31T13:51:55;5.75;;;2.10;;
80334;SDS011;69653;52.674;13.574;2023-07-31T13:54:24;4.90;;;2.17;;
80334;SDS011;69653;52.674;13.574;2023-07-31T13:56:50;5.65;;;2.45;;
80334;SDS011;69653;52.674;13.574;2023-07-31T13:59:16;5.25;;;2.38;;
80334;SDS011;69653;52.674;13.574;2023-07-31T14:01:42;5.87;;;2.20;;
80334;SDS011;69653;52.674;13.574;2023-07-31T14:04:08;6.38;;;2.83;;
80334;SDS011;69653;52.674;13.574;2023-07-31T14:06:33;5.57;;;2.30;;
80334;SDS011;69653;52.674;13.574;2023-07-31T14:08:58;7.60;;;3.63;;
80334;SDS011;69653;52.674;13.574;2023-07-31T14:11:24;7.93;;;3.60;;
80334;SDS011;69653;52.674;13.574;2023-07-31T14:13:49;6.37;;;2.80;;
80334;SDS011;69653;52.674;13.574;2023-07-31T14:16:15;5.07;;;2.15;;
80334;SDS011;69653;52.674;13.574;2023-07-31T14:18:41;6.37;;;1.90;;
80334;SDS011;69653;52.674;13.574;2023-07-31T14:21:06;4.68;;;2.00;;
80334;SDS011;69653;52.674;13.574;2023-07-31T14:23:31;5.30;;;2.00;;
80334;SDS011;69653;52.674;13.574;2023-07-31T14:25:57;4.87;;;1.83;;
80334;SDS011;69653;52.674;13.574;2023-07-31T14:28:22;6.83;;;2.13;;
80334;SDS011;69653;52.674;13.574;2023-07-31T14:30:47;4.47;;;2.30;;
80334;SDS011;69653;52.674;13.574;2023-07-31T14:33:13;8.57;;;2.80;;
80334;SDS011;69653;52.674;13.574;2023-07-31T14:35:38;6.67;;;2.27;;
80334;SDS011;69653;52.674;13.574;2023-07-31T14:38:03;5.73;;;2.27;;
80334;SDS011;69653;52.674;13.574;2023-07-31T14:40:28;9.47;;;2.60;;
80334;SDS011;69653;52.674;13.574;2023-07-31T14:42:54;5.50;;;1.90;;